createdAt,value
2023-02-09T00:00:33.109Z,86.59
2023-02-09T00:01:33.089Z,86.80
2023-02-09T00:02:33.078Z,87.33
2023-02-09T00:03:33.129Z,87.54
2023-02-09T00:04:33.080Z,87.76
2023-02-09T00:05:33.055Z,88.07
2023-02-09T00:06:33.043Z,88.07
2023-02-09T00:07:33.027Z,87.76
2023-02-09T00:08:33.023Z,87.58
2023-02-09T00:09:33.020Z,87.69
2023-02-09T00:10:33.008Z,87.90
2023-02-09T00:11:32.988Z,88.01
2023-02-09T00:12:32.985Z,87.79
2023-02-09T00:13:32.963Z,87.79
2023-02-09T00:14:32.966Z,87.90
2023-02-09T00:15:32.954Z,87.94
2023-02-09T00:16:32.981Z,87.84
2023-02-09T00:17:32.924Z,87.73
2023-02-09T00:18:32.928Z,87.45
2023-02-09T00:19:33.433Z,87.87
2023-02-09T00:20:32.929Z,88.19
2023-02-09T00:21:32.888Z,88.93
2023-02-09T00:22:32.882Z,89.67
2023-02-09T00:23:32.861Z,90.26
2023-02-09T00:24:32.862Z,90.26
2023-02-09T00:25:32.852Z,89.84
2023-02-09T00:26:32.835Z,89.52
2023-02-09T00:27:32.823Z,89.52
2023-02-09T00:28:32.884Z,89.73
2023-02-09T00:29:32.802Z,89.48
2023-02-09T00:30:32.881Z,89.27
2023-02-09T00:31:32.802Z,88.95
2023-02-09T00:32:32.787Z,88.75
2023-02-09T00:33:32.763Z,88.95
2023-02-09T00:34:32.758Z,88.70
2023-02-09T00:35:32.754Z,88.39
2023-02-09T00:36:32.752Z,88.39
2023-02-09T00:37:32.720Z,88.70
2023-02-09T00:38:32.715Z,89.23
2023-02-09T00:39:32.696Z,89.12
2023-02-09T00:40:32.704Z,88.92
2023-02-09T00:41:32.672Z,88.60
2023-02-09T00:42:32.682Z,88.18
2023-02-09T00:43:32.663Z,87.96
2023-02-09T00:44:32.656Z,87.65
2023-02-09T00:45:32.685Z,87.23
2023-02-09T00:46:32.635Z,86.70
2023-02-09T00:47:32.619Z,86.49
2023-02-09T00:48:32.608Z,86.32
2023-02-09T00:49:32.592Z,87.16
2023-02-09T00:50:32.598Z,87.58
2023-02-09T00:51:32.579Z,87.76
2023-02-09T00:52:32.571Z,87.69
2023-02-09T00:53:32.553Z,87.16
2023-02-09T00:54:32.555Z,87.37
2023-02-09T00:55:32.560Z,88.01
2023-02-09T00:56:32.523Z,88.53
2023-02-09T00:57:32.527Z,88.60
2023-02-09T00:58:32.505Z,88.28
2023-02-09T00:59:32.496Z,87.48
2023-02-09T01:00:32.497Z,87.48
2023-02-09T01:01:32.569Z,87.69
2023-02-09T01:02:32.468Z,87.84
2023-02-09T01:03:32.448Z,87.94
2023-02-09T01:04:32.497Z,88.04
2023-02-09T01:05:32.441Z,88.15
2023-02-09T01:06:32.430Z,87.84
2023-02-09T01:07:32.410Z,87.77
2023-02-09T01:08:32.394Z,87.34
2023-02-09T01:09:32.397Z,86.85
2023-02-09T01:10:32.384Z,87.53
2023-02-09T01:11:32.382Z,88.42
2023-02-09T01:12:32.358Z,89.15
2023-02-09T01:13:32.347Z,89.64
2023-02-09T01:14:32.337Z,90.17
2023-02-09T01:15:32.339Z,90.28
2023-02-09T01:16:32.378Z,90.49
2023-02-09T01:17:32.308Z,90.59
2023-02-09T01:18:32.288Z,91.13
2023-02-09T01:19:32.283Z,91.40
2023-02-09T01:20:32.288Z,91.50
2023-02-09T01:21:32.271Z,90.77
2023-02-09T01:22:32.269Z,90.17
2023-02-09T01:23:32.244Z,89.96
2023-02-09T01:24:32.229Z,90.17
2023-02-09T01:25:32.238Z,90.17
2023-02-09T01:26:32.212Z,90.38
2023-02-09T01:27:32.208Z,90.70
2023-02-09T01:28:32.195Z,90.91
2023-02-09T01:29:32.184Z,90.87
2023-02-09T01:30:32.212Z,90.77
2023-02-09T01:31:32.425Z,90.45
2023-02-09T01:32:32.148Z,90.03
2023-02-09T01:33:32.140Z,90.13
2023-02-09T01:34:32.131Z,90.03
2023-02-09T01:35:32.543Z,90.41
2023-02-09T01:36:32.107Z,90.52
2023-02-09T01:37:32.100Z,90.09
2023-02-09T01:38:32.110Z,89.56
2023-02-09T01:39:32.084Z,89.35
2023-02-09T01:40:32.088Z,89.35
2023-02-09T01:41:32.068Z,89.56
2023-02-09T01:42:32.051Z,89.46
2023-02-09T01:43:32.043Z,88.86
2023-02-09T01:44:32.037Z,88.54
2023-02-09T01:45:32.031Z,88.59
2023-02-09T01:46:32.092Z,88.80
2023-02-09T01:47:32.001Z,89.15
2023-02-09T01:48:31.986Z,89.54
2023-02-09T01:49:31.984Z,89.79
2023-02-09T01:50:31.986Z,90.28
2023-02-09T01:51:31.962Z,90.59
2023-02-09T01:52:31.953Z,90.70
2023-02-09T01:53:31.957Z,90.49
2023-02-09T01:54:31.923Z,90.66
2023-02-09T01:55:31.933Z,90.87
2023-02-09T01:56:31.911Z,90.72
2023-02-09T01:57:31.903Z,90.30
2023-02-09T01:58:31.899Z,89.77
2023-02-09T01:59:31.880Z,89.25
2023-02-09T02:00:31.876Z,88.93
2023-02-09T02:01:31.921Z,88.93
2023-02-09T02:02:31.922Z,89.14
2023-02-09T02:03:31.844Z,89.03
2023-02-09T02:04:31.832Z,88.93
2023-02-09T02:05:31.829Z,88.61
2023-02-09T02:06:31.802Z,88.40
2023-02-09T02:07:31.802Z,88.40
2023-02-09T02:08:31.798Z,88.40
2023-02-09T02:09:31.780Z,88.54
2023-02-09T02:10:31.774Z,88.93
2023-02-09T02:11:31.754Z,88.82
2023-02-09T02:12:31.778Z,88.54
2023-02-09T02:13:31.741Z,88.86
2023-02-09T02:14:31.727Z,88.37
2023-02-09T02:15:31.745Z,88.27
2023-02-09T02:16:31.722Z,88.62
2023-02-09T02:17:31.718Z,88.94
2023-02-09T02:18:31.720Z,89.05
2023-02-09T02:19:31.710Z,89.05
2023-02-09T02:20:31.674Z,88.62
2023-02-09T02:21:31.656Z,88.84
2023-02-09T02:22:31.647Z,89.05
2023-02-09T02:23:31.634Z,89.58
2023-02-09T02:24:31.617Z,90.21
2023-02-09T02:25:31.635Z,90.21
2023-02-09T02:26:31.603Z,90.32
2023-02-09T02:27:31.594Z,90.84
2023-02-09T02:28:31.626Z,91.16
2023-02-09T02:29:31.585Z,91.23
2023-02-09T02:30:31.573Z,91.02
2023-02-09T02:31:31.572Z,90.38
2023-02-09T02:32:31.537Z,90.00
2023-02-09T02:33:31.528Z,89.79
2023-02-09T02:34:31.513Z,89.62
2023-02-09T02:35:31.521Z,89.83
2023-02-09T02:36:31.494Z,89.72
2023-02-09T02:37:31.501Z,89.98
2023-02-09T02:38:31.480Z,90.30
2023-02-09T02:39:31.471Z,90.61
2023-02-09T02:40:31.470Z,91.03
2023-02-09T02:41:31.449Z,90.93
2023-02-09T02:42:31.467Z,91.03
2023-02-09T02:43:31.434Z,91.03
2023-02-09T02:44:31.424Z,91.20
2023-02-09T02:45:31.422Z,91.52
2023-02-09T02:46:31.418Z,91.80
2023-02-09T02:47:31.397Z,91.80
2023-02-09T02:48:31.378Z,91.38
2023-02-09T02:49:31.388Z,91.06
2023-02-09T02:50:31.428Z,90.64
2023-02-09T02:51:31.355Z,90.11
2023-02-09T02:52:31.346Z,89.79
2023-02-09T02:53:31.336Z,89.69
2023-02-09T02:54:31.318Z,89.72
2023-02-09T02:55:31.327Z,89.94
2023-02-09T02:56:31.314Z,90.15
2023-02-09T02:57:31.299Z,90.47
2023-02-09T02:58:31.282Z,90.67
2023-02-09T02:59:31.273Z,90.89
2023-02-09T03:00:31.291Z,91.38
2023-02-09T03:01:31.312Z,91.69
2023-02-09T03:02:31.247Z,91.48
2023-02-09T03:03:31.233Z,90.84
2023-02-09T03:04:31.220Z,90.32
2023-02-09T03:05:31.269Z,90.11
2023-02-09T03:06:31.211Z,90.00
2023-02-09T03:07:31.191Z,89.83
2023-02-09T03:08:31.191Z,89.40
2023-02-09T03:09:31.174Z,89.03
2023-02-09T03:10:31.177Z,89.40
2023-02-09T03:11:31.168Z,90.04
2023-02-09T03:12:31.151Z,90.67
2023-02-09T03:13:31.135Z,91.10
2023-02-09T03:14:31.120Z,91.16
2023-02-09T03:15:31.124Z,90.95
2023-02-09T03:16:31.098Z,90.32
2023-02-09T03:17:31.092Z,89.89
2023-02-09T03:18:31.081Z,89.58
2023-02-09T03:19:31.075Z,89.26
2023-02-09T03:20:31.067Z,89.26
2023-02-09T03:21:31.056Z,89.37
2023-02-09T03:22:31.040Z,89.40
2023-02-09T03:23:31.034Z,89.30
2023-02-09T03:24:31.017Z,89.30
2023-02-09T03:25:31.024Z,89.20
2023-02-09T03:26:31.021Z,89.40
2023-02-09T03:27:30.990Z,89.98
2023-02-09T03:28:31.018Z,90.50
2023-02-09T03:29:30.971Z,90.61
2023-02-09T03:30:31.016Z,90.67
2023-02-09T03:31:31.007Z,90.89
2023-02-09T03:32:30.948Z,90.89
2023-02-09T03:33:30.934Z,91.10
2023-02-09T03:34:30.916Z,90.89
2023-02-09T03:35:30.924Z,90.67
2023-02-09T03:36:30.894Z,90.47
2023-02-09T03:37:30.899Z,90.36
2023-02-09T03:38:30.877Z,90.15
2023-02-09T03:39:30.889Z,90.08
2023-02-09T03:40:30.869Z,89.76
2023-02-09T03:41:30.851Z,89.66
2023-02-09T03:42:30.834Z,89.45
2023-02-09T03:43:30.853Z,89.38
2023-02-09T03:44:30.819Z,89.38
2023-02-09T03:45:30.828Z,89.59
2023-02-09T03:46:30.850Z,90.01
2023-02-09T03:47:30.812Z,90.12
2023-02-09T03:48:30.783Z,90.44
2023-02-09T03:49:30.778Z,90.86
2023-02-09T03:50:30.769Z,91.08
2023-02-09T03:51:30.759Z,90.97
2023-02-09T03:52:30.739Z,90.97
2023-02-09T03:53:30.728Z,90.59
2023-02-09T03:54:30.724Z,90.37
2023-02-09T03:55:30.714Z,90.27
2023-02-09T03:56:30.700Z,90.20
2023-02-09T03:57:30.684Z,90.31
2023-02-09T03:58:30.673Z,90.73
2023-02-09T03:59:30.679Z,90.95
2023-02-09T04:00:30.698Z,91.05
2023-02-09T04:01:30.648Z,91.16
2023-02-09T04:02:30.705Z,91.27
2023-02-09T04:03:30.622Z,91.37
2023-02-09T04:04:30.610Z,91.47
2023-02-09T04:05:30.649Z,91.69
2023-02-09T04:06:30.593Z,91.58
2023-02-09T04:07:30.583Z,91.58
2023-02-09T04:08:30.590Z,91.69
2023-02-09T04:09:30.568Z,91.64
2023-02-09T04:10:30.557Z,91.86
2023-02-09T04:11:30.549Z,91.96
2023-02-09T04:12:30.532Z,91.75
2023-02-09T04:13:30.551Z,91.44
2023-02-09T04:14:30.515Z,91.22
2023-02-09T04:15:30.515Z,91.12
2023-02-09T04:16:30.535Z,91.33
2023-02-09T04:17:30.488Z,91.54
2023-02-09T04:18:30.474Z,91.58
2023-02-09T04:19:30.461Z,91.47
2023-02-09T04:20:30.462Z,91.37
2023-02-09T04:21:30.450Z,91.27
2023-02-09T04:22:30.429Z,91.27
2023-02-09T04:23:30.425Z,91.16
2023-02-09T04:24:30.416Z,91.37
2023-02-09T04:25:30.413Z,91.44
2023-02-09T04:26:30.392Z,91.54
2023-02-09T04:27:30.385Z,91.75
2023-02-09T04:28:30.417Z,91.64
2023-02-09T04:29:30.372Z,91.86
2023-02-09T04:30:30.412Z,91.86
2023-02-09T04:31:30.515Z,92.18
2023-02-09T04:32:30.334Z,92.29
2023-02-09T04:33:30.320Z,92.07
2023-02-09T04:34:30.314Z,91.64
2023-02-09T04:35:30.314Z,91.44
2023-02-09T04:36:30.303Z,91.22
2023-02-09T04:37:30.285Z,91.12
2023-02-09T04:38:30.277Z,90.80
2023-02-09T04:39:30.267Z,90.80
2023-02-09T04:40:30.262Z,90.91
2023-02-09T04:41:30.247Z,91.12
2023-02-09T04:42:30.231Z,91.33
2023-02-09T04:43:30.228Z,91.44
2023-02-09T04:44:30.215Z,91.12
2023-02-09T04:45:30.237Z,90.31
2023-02-09T04:46:30.194Z,89.89
2023-02-09T04:47:30.186Z,90.10
2023-02-09T04:48:30.170Z,90.10
2023-02-09T04:49:30.162Z,90.20
2023-02-09T04:50:30.157Z,90.20
2023-02-09T04:51:30.141Z,90.31
2023-02-09T04:52:30.133Z,90.62
2023-02-09T04:53:30.123Z,90.84
2023-02-09T04:54:30.109Z,90.84
2023-02-09T04:55:30.124Z,90.84
2023-02-09T04:56:30.090Z,90.84
2023-02-09T04:57:30.087Z,90.62
2023-02-09T04:58:30.078Z,90.52
2023-02-09T04:59:30.083Z,90.95
2023-02-09T05:00:30.060Z,91.05
2023-02-09T05:01:30.095Z,91.05
2023-02-09T05:02:30.037Z,91.16
2023-02-09T05:03:30.060Z,91.16
2023-02-09T05:04:30.011Z,91.16
2023-02-09T05:05:30.012Z,91.09
2023-02-09T05:06:29.991Z,90.99
2023-02-09T05:07:29.984Z,90.88
2023-02-09T05:08:29.973Z,91.09
2023-02-09T05:09:29.969Z,91.30
2023-02-09T05:10:29.960Z,91.41
2023-02-09T05:11:29.951Z,91.52
2023-02-09T05:12:29.935Z,91.83
2023-02-09T05:13:29.920Z,92.11
2023-02-09T05:14:29.908Z,92.22
2023-02-09T05:15:29.939Z,91.86
2023-02-09T05:16:29.976Z,91.64
2023-02-09T05:17:29.885Z,91.33
2023-02-09T05:18:29.871Z,91.61
2023-02-09T05:19:29.863Z,91.39
2023-02-09T05:20:29.859Z,91.18
2023-02-09T05:21:29.850Z,90.97
2023-02-09T05:22:29.836Z,90.59
2023-02-09T05:23:29.838Z,90.59
2023-02-09T05:24:29.817Z,90.69
2023-02-09T05:25:29.810Z,90.48
2023-02-09T05:26:29.800Z,90.37
2023-02-09T05:27:29.779Z,89.95
2023-02-09T05:28:29.894Z,89.84
2023-02-09T05:29:29.758Z,89.89
2023-02-09T05:30:29.765Z,89.78
2023-02-09T05:31:29.842Z,89.89
2023-02-09T05:32:29.741Z,89.25
2023-02-09T05:33:29.719Z,89.25
2023-02-09T05:34:29.713Z,89.14
2023-02-09T05:35:29.710Z,89.08
2023-02-09T05:36:29.690Z,89.72
2023-02-09T05:37:29.681Z,90.03
2023-02-09T05:38:29.678Z,90.35
2023-02-09T05:39:29.660Z,90.67
2023-02-09T05:40:29.663Z,90.88
2023-02-09T05:41:29.636Z,91.16
2023-02-09T05:42:29.633Z,91.69
2023-02-09T05:43:29.618Z,91.90
2023-02-09T05:44:29.608Z,92.00
2023-02-09T05:45:29.606Z,91.79
2023-02-09T05:46:29.658Z,91.54
2023-02-09T05:47:29.596Z,91.22
2023-02-09T05:48:29.578Z,90.80
2023-02-09T05:49:29.555Z,90.69
2023-02-09T05:50:29.573Z,90.69
2023-02-09T05:51:29.560Z,90.69
2023-02-09T05:52:29.524Z,91.12
2023-02-09T05:53:29.512Z,91.08
2023-02-09T05:54:29.509Z,90.91
2023-02-09T05:55:29.510Z,90.76
2023-02-09T05:56:29.485Z,90.86
2023-02-09T05:57:29.472Z,90.86
2023-02-09T05:58:29.469Z,90.44
2023-02-09T05:59:29.453Z,90.01
2023-02-09T06:00:29.454Z,89.74
2023-02-09T06:01:29.439Z,90.06
2023-02-09T06:02:29.473Z,89.95
2023-02-09T06:03:29.464Z,89.74
2023-02-09T06:04:29.405Z,89.95
2023-02-09T06:05:29.400Z,90.48
2023-02-09T06:06:29.393Z,90.91
2023-02-09T06:07:29.367Z,90.80
2023-02-09T06:08:29.365Z,90.37
2023-02-09T06:09:29.299Z,90.16
2023-02-09T06:10:29.355Z,90.10
2023-02-09T06:11:29.340Z,89.99
2023-02-09T06:12:29.287Z,89.78
2023-02-09T06:13:29.256Z,89.29
2023-02-09T06:14:29.248Z,89.22
2023-02-09T06:15:29.409Z,89.22
2023-02-09T06:16:29.279Z,89.43
2023-02-09T06:17:29.222Z,89.54
2023-02-09T06:18:29.210Z,89.65
2023-02-09T06:19:29.244Z,89.97
2023-02-09T06:20:29.254Z,90.18
2023-02-09T06:21:29.206Z,90.78
2023-02-09T06:22:29.197Z,91.09
2023-02-09T06:23:29.151Z,91.20
2023-02-09T06:24:29.143Z,91.20
2023-02-09T06:25:29.139Z,91.52
2023-02-09T06:26:29.123Z,91.58
2023-02-09T06:27:29.116Z,91.58
2023-02-09T06:28:29.131Z,91.37
2023-02-09T06:29:29.096Z,90.84
2023-02-09T06:30:29.620Z,90.31
2023-02-09T06:31:29.279Z,90.03
2023-02-09T06:32:29.073Z,90.14
2023-02-09T06:33:29.055Z,90.45
2023-02-09T06:34:29.070Z,90.52
2023-02-09T06:35:29.038Z,90.52
2023-02-09T06:36:29.034Z,90.73
2023-02-09T06:37:29.021Z,90.69
2023-02-09T06:38:29.005Z,90.48
2023-02-09T06:39:28.992Z,90.16
2023-02-09T06:40:28.996Z,90.16
2023-02-09T06:41:28.998Z,90.48
2023-02-09T06:42:29.144Z,89.64
2023-02-09T06:43:28.951Z,88.47
2023-02-09T06:44:28.946Z,87.87
2023-02-09T06:45:28.952Z,87.98
2023-02-09T06:46:28.978Z,88.23
2023-02-09T06:47:28.914Z,88.65
2023-02-09T06:48:28.912Z,89.18
2023-02-09T06:49:28.895Z,89.50
2023-02-09T06:50:28.900Z,89.72
2023-02-09T06:51:28.873Z,90.25
2023-02-09T06:52:28.866Z,90.73
2023-02-09T06:53:28.852Z,90.73
2023-02-09T06:54:28.843Z,90.62
2023-02-09T06:55:28.838Z,90.62
2023-02-09T06:56:28.821Z,90.62
2023-02-09T06:57:28.808Z,91.12
2023-02-09T06:58:28.804Z,91.12
2023-02-09T06:59:28.787Z,91.01
2023-02-09T07:00:28.809Z,90.86
2023-02-09T07:01:28.814Z,90.76
2023-02-09T07:02:28.812Z,90.16
2023-02-09T07:03:28.747Z,89.31
2023-02-09T07:04:28.739Z,88.82
2023-02-09T07:05:28.737Z,88.61
2023-02-09T07:06:28.730Z,88.87
2023-02-09T07:07:28.720Z,89.08
2023-02-09T07:08:28.701Z,89.67
2023-02-09T07:09:28.684Z,90.10
2023-02-09T07:10:28.702Z,90.10
2023-02-09T07:11:28.666Z,89.67
2023-02-09T07:12:28.672Z,89.46
2023-02-09T07:13:28.647Z,89.36
2023-02-09T07:14:28.650Z,89.46
2023-02-09T07:15:28.648Z,89.78
2023-02-09T07:16:28.691Z,90.06
2023-02-09T07:17:28.618Z,90.16
2023-02-09T07:18:28.609Z,90.16
2023-02-09T07:19:28.587Z,90.23
2023-02-09T07:20:28.614Z,90.23
2023-02-09T07:21:28.576Z,90.12
2023-02-09T07:22:28.565Z,89.81
2023-02-09T07:23:28.554Z,89.49
2023-02-09T07:24:28.547Z,89.23
2023-02-09T07:25:28.555Z,88.60
2023-02-09T07:26:28.522Z,87.96
2023-02-09T07:27:28.513Z,87.96
2023-02-09T07:28:28.545Z,88.07
2023-02-09T07:29:28.490Z,87.50
2023-02-09T07:30:28.527Z,87.40
2023-02-09T07:31:28.564Z,87.46
2023-02-09T07:32:28.464Z,87.25
2023-02-09T07:33:28.463Z,86.90
2023-02-09T07:34:28.439Z,86.36
2023-02-09T07:35:28.461Z,86.16
2023-02-09T07:36:28.419Z,86.11
2023-02-09T07:37:28.411Z,85.97
2023-02-09T07:38:28.397Z,85.61
2023-02-09T07:39:28.388Z,85.51
2023-02-09T07:40:28.416Z,84.94
2023-02-09T07:41:28.378Z,84.17
2023-02-09T07:42:28.361Z,83.11
2023-02-09T07:43:28.352Z,82.90
2023-02-09T07:44:28.339Z,82.97
2023-02-09T07:45:28.330Z,82.48
2023-02-09T07:46:28.371Z,82.23
2023-02-09T07:47:28.334Z,82.23
2023-02-09T07:48:28.386Z,81.39
2023-02-09T07:49:28.300Z,81.63
2023-02-09T07:50:28.295Z,81.67
2023-02-09T07:51:28.255Z,81.56
2023-02-09T07:52:28.265Z,79.41
2023-02-09T07:53:28.239Z,77.28
2023-02-09T07:54:28.278Z,76.57
2023-02-09T07:55:28.231Z,75.56
2023-02-09T07:56:28.216Z,75.21
2023-02-09T07:57:28.193Z,74.76
2023-02-09T07:58:28.282Z,72.98
2023-02-09T07:59:28.176Z,72.56
2023-02-09T08:00:28.182Z,71.03
2023-02-09T08:01:28.199Z,69.64
2023-02-09T08:02:28.148Z,68.85
2023-02-09T08:03:28.141Z,68.71
2023-02-09T08:04:28.137Z,68.71
2023-02-09T08:05:28.188Z,68.13
2023-02-09T08:06:40.963Z,66.42
2023-02-09T08:07:28.097Z,65.91
2023-02-09T08:08:28.085Z,65.14
2023-02-09T08:09:28.076Z,64.70
2023-02-09T08:10:28.071Z,64.21
2023-02-09T08:11:28.067Z,64.80
2023-02-09T08:12:28.133Z,64.15
2023-02-09T08:13:28.025Z,63.84
2023-02-09T08:14:28.071Z,62.66
2023-02-09T08:15:28.027Z,62.55
2023-02-09T08:16:28.075Z,62.53
2023-02-09T08:17:28.063Z,62.19
2023-02-09T08:18:27.991Z,62.05
2023-02-09T08:19:27.973Z,61.71
2023-02-09T08:20:27.989Z,59.89
2023-02-09T08:21:27.946Z,59.84
2023-02-09T08:22:27.953Z,60.36
2023-02-09T08:23:27.917Z,60.26
2023-02-09T08:24:27.913Z,60.13
2023-02-09T08:25:27.985Z,59.43
2023-02-09T08:26:27.895Z,60.36
2023-02-09T08:27:27.867Z,60.26
2023-02-09T08:28:42.881Z,61.17
2023-02-09T08:29:27.862Z,61.24
2023-02-09T08:30:27.860Z,60.65
2023-02-09T08:31:28.048Z,60.41
2023-02-09T08:32:27.824Z,59.69
2023-02-09T08:33:27.823Z,59.71
2023-02-09T08:34:27.809Z,59.79
2023-02-09T08:35:30.264Z,59.94
2023-02-09T08:36:27.789Z,57.01
2023-02-09T08:37:27.764Z,57.84
2023-02-09T08:38:28.010Z,56.83
2023-02-09T08:39:27.746Z,58.26
2023-02-09T08:40:27.753Z,57.76
2023-02-09T08:41:27.779Z,58.39
2023-02-09T08:42:27.788Z,58.33
2023-02-09T08:43:27.714Z,58.20
2023-02-09T08:44:27.707Z,56.65
2023-02-09T08:45:27.814Z,56.62
2023-02-09T08:46:27.965Z,56.70
2023-02-09T08:47:27.660Z,55.46
2023-02-09T08:48:27.673Z,55.41
2023-02-09T08:49:27.661Z,55.15
2023-02-09T08:50:27.659Z,54.09
2023-02-09T08:51:27.641Z,53.22
2023-02-09T08:52:27.620Z,51.67
2023-02-09T08:53:27.598Z,51.44
2023-02-09T08:54:27.608Z,50.51
2023-02-09T08:55:27.586Z,52.14
2023-02-09T08:56:27.609Z,52.96
2023-02-09T08:57:41.934Z,52.16
2023-02-09T08:58:27.554Z,51.21
2023-02-09T08:59:27.554Z,50.51
2023-02-09T09:00:27.548Z,49.46
2023-02-09T09:01:27.676Z,45.40
2023-02-09T09:02:27.512Z,44.65
2023-02-09T09:03:27.552Z,49.44
2023-02-09T09:04:27.638Z,49.98
2023-02-09T09:05:27.488Z,48.45
2023-02-09T09:06:27.471Z,50.74
2023-02-09T09:07:27.462Z,51.65
2023-02-09T09:08:27.464Z,48.59
2023-02-09T09:09:27.430Z,49.18
2023-02-09T09:10:27.426Z,47.25
2023-02-09T09:11:27.412Z,48.33
2023-02-09T09:12:27.419Z,48.92
2023-02-09T09:13:27.390Z,46.94
2023-02-09T09:14:27.401Z,45.43
2023-02-09T09:15:27.386Z,45.23
2023-02-09T09:16:27.405Z,43.18
2023-02-09T09:17:27.383Z,43.71
2023-02-09T09:18:27.329Z,44.12
2023-02-09T09:19:27.333Z,43.21
2023-02-09T09:20:27.351Z,43.54
2023-02-09T09:21:27.318Z,44.47
2023-02-09T09:22:27.301Z,44.45
2023-02-09T09:23:27.289Z,42.89
2023-02-09T09:24:27.273Z,43.32
2023-02-09T09:25:27.266Z,44.86
2023-02-09T09:26:27.275Z,43.30
2023-02-09T09:27:27.230Z,43.65
2023-02-09T09:28:27.275Z,44.23
2023-02-09T09:29:27.247Z,45.36
2023-02-09T09:30:27.386Z,45.15
2023-02-09T09:31:33.970Z,44.70
2023-02-09T09:32:27.448Z,44.10
2023-02-09T09:34:38.002Z,44.82
2023-02-09T09:35:38.960Z,45.42
2023-02-09T09:36:38.948Z,46.14
2023-02-09T09:37:38.946Z,45.71
2023-02-09T09:38:38.951Z,46.35
2023-02-09T09:39:38.904Z,46.33
2023-02-09T09:40:38.914Z,45.48
2023-02-09T09:41:38.883Z,45.17
2023-02-09T09:42:38.979Z,46.59
2023-02-09T09:43:38.893Z,44.82
2023-02-09T09:44:38.853Z,44.49
2023-02-09T09:45:38.876Z,43.05
2023-02-09T09:46:38.902Z,43.59
2023-02-09T09:47:38.814Z,43.67
2023-02-09T09:48:38.821Z,44.08
2023-02-09T09:49:38.848Z,43.85
2023-02-09T09:50:38.836Z,43.19
2023-02-09T09:51:38.777Z,43.51
2023-02-09T09:52:38.769Z,40.91
2023-02-09T09:53:38.755Z,41.75
2023-02-09T09:54:38.751Z,41.10
2023-02-09T09:55:38.734Z,41.33
2023-02-09T09:56:38.731Z,42.14
2023-02-09T09:57:38.702Z,44.43
2023-02-09T09:58:38.707Z,45.05
2023-02-09T09:59:38.740Z,43.12
2023-02-09T10:00:38.688Z,43.32
2023-02-09T10:01:38.743Z,43.05
2023-02-09T10:02:38.658Z,43.67
2023-02-09T10:03:38.646Z,42.70
2023-02-09T10:04:38.665Z,42.72
2023-02-09T10:05:38.636Z,42.27
2023-02-09T10:06:38.614Z,41.16
2023-02-09T10:07:38.609Z,41.33
2023-02-09T10:08:38.586Z,39.35
2023-02-09T10:09:38.584Z,39.43
2023-02-09T10:10:38.582Z,37.98
2023-02-09T10:11:38.552Z,38.27
2023-02-09T10:12:38.554Z,38.59
2023-02-09T10:13:38.620Z,37.71
2023-02-09T10:14:38.535Z,39.94
2023-02-09T10:15:38.547Z,40.88
2023-02-09T10:16:38.603Z,39.83
2023-02-09T10:17:38.604Z,39.39
2023-02-09T10:18:38.481Z,40.28
2023-02-09T10:19:38.463Z,40.48
2023-02-09T10:20:38.470Z,41.43
2023-02-09T10:21:38.490Z,44.98
2023-02-09T10:22:38.436Z,42.89
2023-02-09T10:23:38.423Z,42.35
2023-02-09T10:24:38.416Z,42.46
2023-02-09T10:25:38.574Z,41.49
2023-02-09T10:26:40.408Z,42.27
2023-02-09T10:27:38.378Z,40.31
2023-02-09T10:28:38.376Z,41.06
2023-02-09T10:29:38.357Z,40.91
2023-02-09T10:30:38.378Z,41.65
2023-02-09T10:31:38.520Z,41.68
2023-02-09T10:32:39.810Z,40.49
2023-02-09T10:33:38.316Z,39.35
2023-02-09T10:34:38.300Z,38.92
2023-02-09T10:35:38.295Z,39.29
2023-02-09T10:36:38.300Z,37.63
2023-02-09T10:37:38.289Z,37.04
2023-02-09T10:38:38.271Z,37.74
2023-02-09T10:39:38.244Z,37.84
2023-02-09T10:40:38.250Z,37.72
2023-02-09T10:41:38.263Z,36.80
2023-02-09T10:42:38.280Z,36.77
2023-02-09T10:43:38.199Z,37.23
2023-02-09T10:44:40.179Z,38.17
2023-02-09T10:45:38.194Z,36.75
2023-02-09T10:46:38.320Z,37.82
2023-02-09T10:47:38.162Z,37.45
2023-02-09T10:48:38.253Z,37.07
2023-02-09T10:49:38.248Z,37.93
2023-02-09T10:50:38.184Z,38.54
2023-02-09T10:51:38.177Z,39.78
2023-02-09T10:52:38.138Z,39.06
2023-02-09T10:53:38.151Z,38.84
2023-02-09T10:54:38.105Z,38.97
2023-02-09T10:55:38.142Z,39.07
2023-02-09T10:56:38.148Z,38.77
2023-02-09T10:57:38.074Z,39.47
2023-02-09T10:58:38.058Z,38.71
2023-02-09T10:59:38.059Z,37.47
2023-02-09T11:00:38.046Z,37.33
2023-02-09T11:01:38.154Z,40.61
2023-02-09T11:02:38.061Z,41.77
2023-02-09T11:03:38.016Z,42.31
2023-02-09T11:04:38.066Z,43.19
2023-02-09T11:05:38.035Z,44.06
2023-02-09T11:06:37.971Z,46.19
2023-02-09T11:07:37.958Z,43.93
2023-02-09T11:08:37.965Z,41.51
2023-02-09T11:09:37.946Z,40.75
2023-02-09T11:10:37.945Z,40.33
2023-02-09T11:11:37.985Z,40.45
2023-02-09T11:12:37.899Z,39.90
2023-02-09T11:13:37.899Z,39.92
2023-02-09T11:14:37.894Z,39.50
2023-02-09T11:15:37.958Z,41.37
2023-02-09T11:16:37.882Z,41.78
2023-02-09T11:17:37.888Z,41.28
2023-02-09T11:18:37.827Z,40.75
2023-02-09T11:19:37.836Z,40.67
2023-02-09T11:20:37.810Z,40.22
2023-02-09T11:21:37.813Z,40.12
2023-02-09T11:22:37.823Z,39.69
2023-02-09T11:23:37.789Z,39.59
2023-02-09T11:24:37.775Z,40.70
2023-02-09T11:25:37.770Z,38.93
2023-02-09T11:26:37.803Z,38.42
2023-02-09T11:27:37.754Z,38.84
2023-02-09T11:28:37.737Z,39.25
2023-02-09T11:29:37.732Z,38.22
2023-02-09T11:30:37.754Z,38.61
2023-02-09T11:31:37.746Z,40.58
2023-02-09T11:32:37.680Z,38.22
2023-02-09T11:33:37.673Z,37.73
2023-02-09T11:34:37.665Z,39.18
2023-02-09T11:35:37.652Z,40.72
2023-02-09T11:36:37.783Z,40.00
2023-02-09T11:37:37.687Z,38.53
2023-02-09T11:38:37.630Z,38.10
2023-02-09T11:39:38.363Z,38.20
2023-02-09T11:40:37.608Z,38.70
2023-02-09T11:41:37.599Z,37.41
2023-02-09T11:42:37.563Z,36.38
2023-02-09T11:43:37.560Z,36.60
2023-02-09T11:44:37.541Z,37.16
2023-02-09T11:45:37.877Z,37.30
2023-02-09T11:46:37.825Z,39.86
2023-02-09T11:47:37.731Z,38.42
2023-02-09T11:48:37.623Z,38.65
2023-02-09T11:49:38.888Z,38.34
2023-02-09T11:50:37.493Z,38.75
2023-02-09T11:51:37.535Z,38.63
2023-02-09T11:52:37.482Z,37.99
2023-02-09T11:53:37.514Z,37.93
2023-02-09T11:54:37.466Z,37.91
2023-02-09T11:55:37.489Z,38.24
2023-02-09T11:56:37.450Z,37.71
2023-02-09T11:57:37.422Z,37.83
2023-02-09T11:58:37.411Z,37.74
2023-02-09T11:59:37.389Z,37.95
2023-02-09T12:00:47.984Z,37.83
2023-02-09T12:01:37.390Z,37.45
2023-02-09T12:02:37.410Z,35.28
2023-02-09T12:03:37.365Z,36.10
2023-02-09T12:04:37.353Z,35.40
2023-02-09T12:05:37.335Z,36.51
2023-02-09T12:06:37.419Z,38.21
2023-02-09T12:07:37.305Z,39.13
2023-02-09T12:08:37.282Z,39.98
2023-02-09T12:09:37.286Z,36.56
2023-02-09T12:10:37.293Z,36.56
2023-02-09T12:11:37.293Z,37.72
2023-02-09T12:12:37.313Z,35.46
2023-02-09T12:13:37.261Z,34.72
2023-02-09T12:14:37.230Z,34.33
2023-02-09T12:15:37.236Z,36.15
2023-02-09T12:16:37.319Z,34.52
2023-02-09T12:17:37.201Z,34.31
2023-02-09T12:18:37.196Z,34.94
2023-02-09T12:19:37.172Z,36.46
2023-02-09T12:20:37.171Z,37.60
2023-02-09T12:21:37.179Z,38.31
2023-02-09T12:22:37.143Z,36.68
2023-02-09T12:23:37.130Z,37.59
2023-02-09T12:24:37.121Z,36.85
2023-02-09T12:25:37.125Z,36.77
2023-02-09T12:26:37.112Z,36.65
2023-02-09T12:27:37.101Z,36.15
2023-02-09T12:28:37.144Z,37.33
2023-02-09T12:29:37.080Z,37.54
2023-02-09T12:30:37.085Z,37.81
2023-02-09T12:31:37.130Z,36.87
2023-02-09T12:32:37.026Z,36.51
2023-02-09T12:33:37.027Z,36.92
2023-02-09T12:34:37.032Z,37.55
2023-02-09T12:35:37.008Z,35.28
2023-02-09T12:36:37.005Z,37.30
2023-02-09T12:37:36.985Z,36.56
2023-02-09T12:38:36.978Z,36.56
2023-02-09T12:39:36.983Z,36.80
2023-02-09T12:40:37.068Z,37.15
2023-02-09T12:41:37.596Z,38.28
2023-02-09T12:42:36.929Z,37.13
2023-02-09T12:43:36.975Z,37.84
2023-02-09T12:44:36.905Z,37.30
2023-02-09T12:45:36.993Z,37.38
2023-02-09T12:46:36.900Z,36.07
2023-02-09T12:47:36.900Z,36.07
2023-02-09T12:48:36.855Z,37.30
2023-02-09T12:49:36.888Z,36.55
2023-02-09T12:50:36.887Z,37.24
2023-02-09T12:51:36.863Z,36.51
2023-02-09T12:52:36.839Z,36.58
2023-02-09T12:53:36.838Z,35.17